sensor_id;sensor_type;location;lat;lon;timestamp;pressure;altitude;pressure_sealevel;temperature;humidity
16613;BME280;8419;52.358;9.752;2023-02-01T00:02:29;100840.00;;;15.81;37.03
16613;BME280;8419;52.358;9.752;2023-02-01T00:05:16;100843.00;;;15.80;37.01
16613;BME280;8419;52.358;9.752;2023-02-01T00:08:01;100842.00;;;15.81;37.15
16613;BME280;8419;52.358;9.752;2023-02-01T00:10:46;100839.00;;;15.77;37.26
16613;BME280;8419;52.358;9.752;2023-02-01T00:13:32;100838.00;;;15.66;37.49
16613;BME280;8419;52.358;9.752;2023-02-01T00:16:19;100834.00;;;15.71;37.32
16613;BME280;8419;52.358;9.752;2023-02-01T00:19:09;100833.00;;;15.71;37.41
16613;BME280;8419;52.358;9.752;2023-02-01T00:21:55;100835.00;;;15.72;37.23
16613;BME280;8419;52.358;9.752;2023-02-01T00:24:40;100831.00;;;15.73;37.08
16613;BME280;8419;52.358;9.752;2023-02-01T00:27:25;100823.00;;;15.62;37.35
16613;BME280;8419;52.358;9.752;2023-02-01T00:30:12;100819.00;;;15.51;37.57
16613;BME280;8419;52.358;9.752;2023-02-01T00:32:57;100822.00;;;15.67;37.37
16613;BME280;8419;52.358;9.752;2023-02-01T00:35:42;100811.00;;;15.63;37.41
16613;BME280;8419;52.358;9.752;2023-02-01T00:38:29;100809.00;;;15.68;37.18
16613;BME280;8419;52.358;9.752;2023-02-01T00:41:16;100826.00;;;15.67;37.31
16613;BME280;8419;52.358;9.752;2023-02-01T00:44:02;100831.00;;;15.74;37.22
16613;BME280;8419;52.358;9.752;2023-02-01T00:46:47;100822.00;;;15.74;37.33
16613;BME280;8419;52.358;9.752;2023-02-01T00:49:33;100822.00;;;15.66;37.37
16613;BME280;8419;52.358;9.752;2023-02-01T00:52:18;100823.00;;;15.71;37.30
16613;BME280;8419;52.358;9.752;2023-02-01T00:55:04;100815.00;;;15.54;37.54
16613;BME280;8419;52.358;9.752;2023-02-01T00:57:52;100801.00;;;15.58;37.48
16613;BME280;8419;52.358;9.752;2023-02-01T01:00:37;100806.00;;;15.58;37.33
16613;BME280;8419;52.358;9.752;2023-02-01T01:03:23;100795.00;;;15.67;37.18
16613;BME280;8419;52.358;9.752;2023-02-01T01:06:10;100795.00;;;15.67;37.22
16613;BME280;8419;52.358;9.752;2023-02-01T01:08:57;100788.00;;;15.65;37.25
16613;BME280;8419;52.358;9.752;2023-02-01T01:11:42;100797.00;;;15.51;37.60
16613;BME280;8419;52.358;9.752;2023-02-01T01:14:27;100797.00;;;15.54;37.47
16613;BME280;8419;52.358;9.752;2023-02-01T01:17:13;100809.00;;;15.53;37.55
16613;BME280;8419;52.358;9.752;2023-02-01T01:19:58;100810.00;;;15.52;37.55
16613;BME280;8419;52.358;9.752;2023-02-01T01:22:43;100804.00;;;15.43;37.64
16613;BME280;8419;52.358;9.752;2023-02-01T01:25:28;100811.00;;;15.54;37.44
16613;BME280;8419;52.358;9.752;2023-02-01T01:28:13;100797.00;;;15.59;37.28
16613;BME280;8419;52.358;9.752;2023-02-01T01:30:58;100791.00;;;15.63;37.08
16613;BME280;8419;52.358;9.752;2023-02-01T01:33:46;100783.00;;;15.65;37.17
16613;BME280;8419;52.358;9.752;2023-02-01T01:36:32;100782.00;;;15.67;37.03
16613;BME280;8419;52.358;9.752;2023-02-01T01:39:17;100785.00;;;15.65;37.19
16613;BME280;8419;52.358;9.752;2023-02-01T01:42:03;100783.00;;;15.63;37.20
16613;BME280;8419;52.358;9.752;2023-02-01T01:44:57;100789.00;;;15.79;36.91
16613;BME280;8419;52.358;9.752;2023-02-01T01:47:46;100785.00;;;15.63;37.18
16613;BME280;8419;52.358;9.752;2023-02-01T01:50:36;100778.00;;;15.62;37.15
16613;BME280;8419;52.358;9.752;2023-02-01T01:53:25;100776.00;;;15.50;37.40
16613;BME280;8419;52.358;9.752;2023-02-01T01:56:12;100780.00;;;15.62;37.14
16613;BME280;8419;52.358;9.752;2023-02-01T01:58:58;100751.00;;;15.60;37.17
16613;BME280;8419;52.358;9.752;2023-02-01T02:01:45;100760.00;;;15.59;37.03
16613;BME280;8419;52.358;9.752;2023-02-01T02:04:32;100762.00;;;15.59;37.06
16613;BME280;8419;52.358;9.752;2023-02-01T02:07:23;100766.00;;;15.58;37.05
16613;BME280;8419;52.358;9.752;2023-02-01T02:10:11;100765.00;;;15.62;36.91
16613;BME280;8419;52.358;9.752;2023-02-01T02:12:57;100763.00;;;15.61;36.97
16613;BME280;8419;52.358;9.752;2023-02-01T02:15:47;100762.00;;;15.60;36.98
16613;BME280;8419;52.358;9.752;2023-02-01T02:18:46;100744.00;;;15.62;37.04
16613;BME280;8419;52.358;9.752;2023-02-01T02:21:53;100750.00;;;15.50;37.35
16613;BME280;8419;52.358;9.752;2023-02-01T02:28:45;100739.00;;;15.85;37.04
16613;BME280;8419;52.358;9.752;2023-02-01T02:32:12;100732.00;;;15.77;36.91
16613;BME280;8419;52.358;9.752;2023-02-01T02:35:06;100738.00;;;15.80;36.96
16613;BME280;8419;52.358;9.752;2023-02-01T02:38:01;100721.00;;;15.82;36.93
16613;BME280;8419;52.358;9.752;2023-02-01T02:40:54;100734.00;;;15.78;37.06
16613;BME280;8419;52.358;9.752;2023-02-01T02:43:47;100721.00;;;15.84;36.91
16613;BME280;8419;52.358;9.752;2023-02-01T02:46:56;100713.00;;;15.82;36.74
16613;BME280;8419;52.358;9.752;2023-02-01T02:50:12;100701.00;;;15.73;36.75
16613;BME280;8419;52.358;9.752;2023-02-01T02:53:23;100698.00;;;15.79;36.65
16613;BME280;8419;52.358;9.752;2023-02-01T02:56:29;100701.00;;;15.76;36.54
16613;BME280;8419;52.358;9.752;2023-02-01T02:59:34;100690.00;;;15.83;36.42
16613;BME280;8419;52.358;9.752;2023-02-01T03:02:40;100694.00;;;15.85;36.58
16613;BME280;8419;52.358;9.752;2023-02-01T03:05:46;100696.00;;;15.86;36.50
16613;BME280;8419;52.358;9.752;2023-02-01T03:08:32;100685.00;;;15.84;36.46
16613;BME280;8419;52.358;9.752;2023-02-01T03:11:18;100695.00;;;15.84;36.45
16613;BME280;8419;52.358;9.752;2023-02-01T03:14:05;100690.00;;;15.77;36.62
16613;BME280;8419;52.358;9.752;2023-02-01T03:16:54;100683.00;;;15.78;36.58
16613;BME280;8419;52.358;9.752;2023-02-01T03:19:45;100675.00;;;15.82;36.47
16613;BME280;8419;52.358;9.752;2023-02-01T03:22:35;100695.00;;;15.80;36.57
16613;BME280;8419;52.358;9.752;2023-02-01T03:25:26;100667.00;;;15.85;36.46
16613;BME280;8419;52.358;9.752;2023-02-01T03:28:16;100664.00;;;15.91;36.21
16613;BME280;8419;52.358;9.752;2023-02-01T03:31:04;100667.00;;;15.96;36.16
16613;BME280;8419;52.358;9.752;2023-02-01T03:33:51;100670.00;;;15.96;36.14
16613;BME280;8419;52.358;9.752;2023-02-01T03:36:39;100662.00;;;15.91;36.30
16613;BME280;8419;52.358;9.752;2023-02-01T03:39:29;100659.00;;;15.94;36.33
16613;BME280;8419;52.358;9.752;2023-02-01T03:42:21;100653.00;;;16.00;36.19
16613;BME280;8419;52.358;9.752;2023-02-01T03:45:14;100641.00;;;15.93;36.15
16613;BME280;8419;52.358;9.752;2023-02-01T03:48:04;100651.00;;;16.02;36.06
16613;BME280;8419;52.358;9.752;2023-02-01T03:50:55;100632.00;;;15.92;36.15
16613;BME280;8419;52.358;9.752;2023-02-01T03:53:42;100635.00;;;15.76;36.37
16613;BME280;8419;52.358;9.752;2023-02-01T03:56:32;100630.00;;;15.70;36.52
16613;BME280;8419;52.358;9.752;2023-02-01T03:59:21;100623.00;;;15.82;36.35
16613;BME280;8419;52.358;9.752;2023-02-01T04:02:06;100621.00;;;15.83;36.30
16613;BME280;8419;52.358;9.752;2023-02-01T04:04:51;100606.00;;;15.80;36.39
16613;BME280;8419;52.358;9.752;2023-02-01T04:07:37;100620.00;;;15.80;36.47
16613;BME280;8419;52.358;9.752;2023-02-01T04:10:24;100629.00;;;15.86;36.40
16613;BME280;8419;52.358;9.752;2023-02-01T04:13:10;100617.00;;;15.90;36.39
16613;BME280;8419;52.358;9.752;2023-02-01T04:15:55;100596.00;;;15.93;36.43
16613;BME280;8419;52.358;9.752;2023-02-01T04:18:40;100599.00;;;15.95;36.40
16613;BME280;8419;52.358;9.752;2023-02-01T04:21:26;100597.00;;;16.03;36.30
16613;BME280;8419;52.358;9.752;2023-02-01T04:24:12;100598.00;;;16.08;36.25
16613;BME280;8419;52.358;9.752;2023-02-01T04:26:58;100617.00;;;16.10;36.17
16613;BME280;8419;52.358;9.752;2023-02-01T04:29:43;100599.00;;;16.15;35.93
16613;BME280;8419;52.358;9.752;2023-02-01T04:32:29;100598.00;;;16.09;36.15
16613;BME280;8419;52.358;9.752;2023-02-01T04:35:15;100589.00;;;16.11;36.12
16613;BME280;8419;52.358;9.752;2023-02-01T04:38:00;100608.00;;;16.17;35.97
16613;BME280;8419;52.358;9.752;2023-02-01T04:40:48;100584.00;;;16.14;36.03
16613;BME280;8419;52.358;9.752;2023-02-01T04:43:34;100609.00;;;16.20;35.92
16613;BME280;8419;52.358;9.752;2023-02-01T04:46:19;100573.00;;;16.19;35.74
16613;BME280;8419;52.358;9.752;2023-02-01T04:49:05;100585.00;;;16.19;35.84
16613;BME280;8419;52.358;9.752;2023-02-01T04:51:50;100569.00;;;16.13;36.03
16613;BME280;8419;52.358;9.752;2023-02-01T04:54:35;100572.00;;;16.03;36.31
16613;BME280;8419;52.358;9.752;2023-02-01T04:57:20;100572.00;;;15.94;36.64
16613;BME280;8419;52.358;9.752;2023-02-01T05:00:08;100588.00;;;15.58;37.60
16613;BME280;8419;52.358;9.752;2023-02-01T05:02:54;100578.00;;;15.33;38.32
16613;BME280;8419;52.358;9.752;2023-02-01T05:05:39;100583.00;;;15.11;38.94
16613;BME280;8419;52.358;9.752;2023-02-01T05:08:24;100594.00;;;14.96;39.39
16613;BME280;8419;52.358;9.752;2023-02-01T05:11:10;100568.00;;;14.88;39.75
16613;BME280;8419;52.358;9.752;2023-02-01T05:16:32;100568.00;;;14.83;40.10
16613;BME280;8419;52.358;9.752;2023-02-01T05:19:18;100569.00;;;14.68;40.68
16613;BME280;8419;52.358;9.752;2023-02-01T05:22:03;100559.00;;;14.58;41.07
16613;BME280;8419;52.358;9.752;2023-02-01T05:24:49;100549.00;;;14.55;41.35
16613;BME280;8419;52.358;9.752;2023-02-01T05:27:34;100548.00;;;14.60;41.31
16613;BME280;8419;52.358;9.752;2023-02-01T05:30:19;100561.00;;;14.56;41.55
16613;BME280;8419;52.358;9.752;2023-02-01T05:33:05;100561.00;;;14.61;41.59
16613;BME280;8419;52.358;9.752;2023-02-01T05:35:50;100569.00;;;14.56;41.81
16613;BME280;8419;52.358;9.752;2023-02-01T05:38:36;100560.00;;;14.51;42.01
16613;BME280;8419;52.358;9.752;2023-02-01T05:41:21;100550.00;;;14.54;42.02
16613;BME280;8419;52.358;9.752;2023-02-01T05:44:06;100548.00;;;14.53;42.13
16613;BME280;8419;52.358;9.752;2023-02-01T05:46:51;100551.00;;;14.52;42.21
16613;BME280;8419;52.358;9.752;2023-02-01T05:49:37;100545.00;;;14.58;42.23
16613;BME280;8419;52.358;9.752;2023-02-01T05:52:22;100540.00;;;14.62;42.21
16613;BME280;8419;52.358;9.752;2023-02-01T05:55:08;100537.00;;;14.66;42.18
16613;BME280;8419;52.358;9.752;2023-02-01T05:57:54;100522.00;;;14.62;42.37
16613;BME280;8419;52.358;9.752;2023-02-01T06:00:39;100524.00;;;14.68;42.35
16613;BME280;8419;52.358;9.752;2023-02-01T06:03:24;100536.00;;;14.70;42.41
16613;BME280;8419;52.358;9.752;2023-02-01T06:06:11;100520.00;;;14.86;42.19
16613;BME280;8419;52.358;9.752;2023-02-01T06:08:56;100524.00;;;14.82;42.27
16613;BME280;8419;52.358;9.752;2023-02-01T06:11:41;100507.00;;;14.83;42.26
16613;BME280;8419;52.358;9.752;2023-02-01T06:14:30;100509.00;;;14.90;42.18
16613;BME280;8419;52.358;9.752;2023-02-01T06:17:17;100511.00;;;14.91;42.19
16613;BME280;8419;52.358;9.752;2023-02-01T06:20:04;100495.00;;;14.93;42.19
16613;BME280;8419;52.358;9.752;2023-02-01T06:22:51;100505.00;;;14.99;42.16
16613;BME280;8419;52.358;9.752;2023-02-01T06:25:38;100493.00;;;15.02;42.10
16613;BME280;8419;52.358;9.752;2023-02-01T06:28:23;100512.00;;;15.13;41.95
16613;BME280;8419;52.358;9.752;2023-02-01T06:31:09;100510.00;;;15.12;41.88
16613;BME280;8419;52.358;9.752;2023-02-01T06:33:55;100503.00;;;15.07;41.92
16613;BME280;8419;52.358;9.752;2023-02-01T06:36:41;100495.00;;;15.06;41.88
16613;BME280;8419;52.358;9.752;2023-02-01T06:39:29;100514.00;;;14.99;42.00
16613;BME280;8419;52.358;9.752;2023-02-01T06:42:14;100514.00;;;14.98;42.03
16613;BME280;8419;52.358;9.752;2023-02-01T06:44:59;100518.00;;;14.93;42.19
16613;BME280;8419;52.358;9.752;2023-02-01T06:47:44;100538.00;;;14.84;42.35
16613;BME280;8419;52.358;9.752;2023-02-01T06:50:30;100515.00;;;14.86;42.28
16613;BME280;8419;52.358;9.752;2023-02-01T06:53:15;100517.00;;;14.76;42.49
16613;BME280;8419;52.358;9.752;2023-02-01T06:56:02;100518.00;;;14.75;42.54
16613;BME280;8419;52.358;9.752;2023-02-01T06:58:49;100544.00;;;14.72;42.63
16613;BME280;8419;52.358;9.752;2023-02-01T07:01:34;100529.00;;;14.68;42.82
16613;BME280;8419;52.358;9.752;2023-02-01T07:04:19;100518.00;;;14.75;42.65
16613;BME280;8419;52.358;9.752;2023-02-01T07:07:05;100546.00;;;14.70;42.76
16613;BME280;8419;52.358;9.752;2023-02-01T07:09:50;100551.00;;;14.68;42.87
16613;BME280;8419;52.358;9.752;2023-02-01T07:12:36;100552.00;;;14.67;42.90
16613;BME280;8419;52.358;9.752;2023-02-01T07:15:22;100551.00;;;14.74;42.81
16613;BME280;8419;52.358;9.752;2023-02-01T07:18:08;100548.00;;;14.74;42.88
16613;BME280;8419;52.358;9.752;2023-02-01T07:20:54;100549.00;;;14.78;42.87
16613;BME280;8419;52.358;9.752;2023-02-01T07:23:39;100532.00;;;14.80;42.91
16613;BME280;8419;52.358;9.752;2023-02-01T07:26:24;100553.00;;;14.84;42.88
16613;BME280;8419;52.358;9.752;2023-02-01T07:29:09;100533.00;;;14.90;42.80
16613;BME280;8419;52.358;9.752;2023-02-01T07:31:54;100571.00;;;15.00;42.61
16613;BME280;8419;52.358;9.752;2023-02-01T07:34:40;100547.00;;;15.10;42.59
16613;BME280;8419;52.358;9.752;2023-02-01T07:37:27;100550.00;;;15.23;42.34
16613;BME280;8419;52.358;9.752;2023-02-01T07:40:13;100562.00;;;15.35;42.20
16613;BME280;8419;52.358;9.752;2023-02-01T07:42:58;100557.00;;;15.48;42.09
16613;BME280;8419;52.358;9.752;2023-02-01T07:45:51;100536.00;;;15.52;42.02
16613;BME280;8419;52.358;9.752;2023-02-01T07:48:37;100561.00;;;15.58;41.89
16613;BME280;8419;52.358;9.752;2023-02-01T07:51:22;100546.00;;;15.63;41.56
16613;BME280;8419;52.358;9.752;2023-02-01T07:54:07;100564.00;;;15.61;41.57
16613;BME280;8419;52.358;9.752;2023-02-01T07:56:54;100566.00;;;15.67;41.51
16613;BME280;8419;52.358;9.752;2023-02-01T07:59:40;100565.00;;;15.86;41.01
16613;BME280;8419;52.358;9.752;2023-02-01T08:04:04;100554.00;;;15.92;40.85
16613;BME280;8419;52.358;9.752;2023-02-01T08:06:49;100569.00;;;15.91;40.57
16613;BME280;8419;52.358;9.752;2023-02-01T08:09:35;100556.00;;;15.91;40.64
16613;BME280;8419;52.358;9.752;2023-02-01T08:12:20;100563.00;;;15.97;40.57
16613;BME280;8419;52.358;9.752;2023-02-01T08:15:07;100571.00;;;16.02;40.34
16613;BME280;8419;52.358;9.752;2023-02-01T08:17:53;100580.00;;;16.04;40.14
16613;BME280;8419;52.358;9.752;2023-02-01T08:20:39;100578.00;;;16.09;39.88
16613;BME280;8419;52.358;9.752;2023-02-01T08:23:26;100580.00;;;16.07;39.73
16613;BME280;8419;52.358;9.752;2023-02-01T08:26:12;100588.00;;;16.13;39.67
16613;BME280;8419;52.358;9.752;2023-02-01T08:29:02;100597.00;;;16.14;39.60
16613;BME280;8419;52.358;9.752;2023-02-01T08:31:48;100603.00;;;16.18;39.58
16613;BME280;8419;52.358;9.752;2023-02-01T08:34:34;100608.00;;;16.26;39.22
16613;BME280;8419;52.358;9.752;2023-02-01T08:37:19;100600.00;;;16.38;39.03
16613;BME280;8419;52.358;9.752;2023-02-01T08:40:09;100600.00;;;16.37;39.06
16613;BME280;8419;52.358;9.752;2023-02-01T08:42:55;100580.00;;;16.33;39.04
16613;BME280;8419;52.358;9.752;2023-02-01T08:45:40;100605.00;;;16.33;39.04
16613;BME280;8419;52.358;9.752;2023-02-01T08:48:25;100602.00;;;16.36;38.96
16613;BME280;8419;52.358;9.752;2023-02-01T08:51:12;100602.00;;;16.43;38.82
16613;BME280;8419;52.358;9.752;2023-02-01T08:53:58;100604.00;;;16.42;38.72
16613;BME280;8419;52.358;9.752;2023-02-01T08:56:44;100600.00;;;16.54;38.53
16613;BME280;8419;52.358;9.752;2023-02-01T08:59:29;100614.00;;;16.59;38.36
16613;BME280;8419;52.358;9.752;2023-02-01T09:02:15;100581.00;;;16.55;38.37
16613;BME280;8419;52.358;9.752;2023-02-01T09:05:02;100614.00;;;16.56;38.28
16613;BME280;8419;52.358;9.752;2023-02-01T09:07:50;100610.00;;;16.58;38.41
16613;BME280;8419;52.358;9.752;2023-02-01T09:10:36;100609.00;;;16.59;38.57
16613;BME280;8419;52.358;9.752;2023-02-01T09:13:21;100599.00;;;16.77;38.22
16613;BME280;8419;52.358;9.752;2023-02-01T09:16:08;100602.00;;;16.98;37.85
16613;BME280;8419;52.358;9.752;2023-02-01T09:18:54;100605.00;;;17.05;37.60
16613;BME280;8419;52.358;9.752;2023-02-01T09:21:39;100592.00;;;17.04;37.53
16613;BME280;8419;52.358;9.752;2023-02-01T09:24:24;100596.00;;;17.09;37.29
16613;BME280;8419;52.358;9.752;2023-02-01T09:27:12;100601.00;;;17.09;37.28
16613;BME280;8419;52.358;9.752;2023-02-01T09:29:58;100590.00;;;17.15;37.16
16613;BME280;8419;52.358;9.752;2023-02-01T09:32:43;100603.00;;;17.10;37.16
16613;BME280;8419;52.358;9.752;2023-02-01T09:35:29;100611.00;;;17.12;37.07
16613;BME280;8419;52.358;9.752;2023-02-01T09:38:15;100601.00;;;17.12;37.16
16613;BME280;8419;52.358;9.752;2023-02-01T09:41:01;100617.00;;;17.12;37.18
16613;BME280;8419;52.358;9.752;2023-02-01T09:43:53;100601.00;;;17.15;36.79
16613;BME280;8419;52.358;9.752;2023-02-01T09:46:41;100600.00;;;17.13;36.96
16613;BME280;8419;52.358;9.752;2023-02-01T09:49:29;100603.00;;;17.12;37.00
16613;BME280;8419;52.358;9.752;2023-02-01T09:52:20;100609.00;;;17.15;36.90
16613;BME280;8419;52.358;9.752;2023-02-01T09:55:15;100644.00;;;17.28;36.56
16613;BME280;8419;52.358;9.752;2023-02-01T09:58:03;100619.00;;;17.27;36.40
16613;BME280;8419;52.358;9.752;2023-02-01T10:00:52;100609.00;;;17.29;36.48
16613;BME280;8419;52.358;9.752;2023-02-01T10:03:38;100610.00;;;17.38;36.51
16613;BME280;8419;52.358;9.752;2023-02-01T10:06:32;100637.00;;;17.38;36.37
16613;BME280;8419;52.358;9.752;2023-02-01T10:09:32;100622.00;;;17.32;36.31
16613;BME280;8419;52.358;9.752;2023-02-01T10:12:48;100616.00;;;17.24;36.51
16613;BME280;8419;52.358;9.752;2023-02-01T10:15:44;100623.00;;;17.35;36.40
16613;BME280;8419;52.358;9.752;2023-02-01T10:25:15;100610.00;;;17.65;35.98
16613;BME280;8419;52.358;9.752;2023-02-01T10:28:03;100600.00;;;17.59;35.94
16613;BME280;8419;52.358;9.752;2023-02-01T10:30:49;100607.00;;;17.71;35.77
16613;BME280;8419;52.358;9.752;2023-02-01T10:33:41;100595.00;;;17.78;35.31
16613;BME280;8419;52.358;9.752;2023-02-01T10:36:31;100580.00;;;17.77;35.19
16613;BME280;8419;52.358;9.752;2023-02-01T10:39:18;100589.00;;;17.76;35.46
16613;BME280;8419;52.358;9.752;2023-02-01T10:42:04;100591.00;;;17.83;35.64
16613;BME280;8419;52.358;9.752;2023-02-01T10:44:50;100579.00;;;17.85;35.54
16613;BME280;8419;52.358;9.752;2023-02-01T10:47:35;100579.00;;;17.87;35.08
16613;BME280;8419;52.358;9.752;2023-02-01T10:50:33;100567.00;;;17.86;35.25
16613;BME280;8419;52.358;9.752;2023-02-01T10:53:24;100568.00;;;17.86;35.27
16613;BME280;8419;52.358;9.752;2023-02-01T10:56:12;100571.00;;;17.69;35.31
16613;BME280;8419;52.358;9.752;2023-02-01T10:59:02;100587.00;;;17.70;35.21
16613;BME280;8419;52.358;9.752;2023-02-01T11:01:49;100587.00;;;17.64;35.31
16613;BME280;8419;52.358;9.752;2023-02-01T11:04:35;100578.00;;;17.57;35.38
16613;BME280;8419;52.358;9.752;2023-02-01T11:07:24;100563.00;;;17.69;35.16
16613;BME280;8419;52.358;9.752;2023-02-01T11:10:35;100558.00;;;17.64;35.42
16613;BME280;8419;52.358;9.752;2023-02-01T11:13:21;100555.00;;;17.71;35.26
16613;BME280;8419;52.358;9.752;2023-02-01T11:16:14;100563.00;;;17.69;35.08
16613;BME280;8419;52.358;9.752;2023-02-01T11:19:00;100560.00;;;17.73;35.02
16613;BME280;8419;52.358;9.752;2023-02-01T11:21:49;100558.00;;;17.75;34.95
16613;BME280;8419;52.358;9.752;2023-02-01T11:24:37;100533.00;;;17.70;34.66
16613;BME280;8419;52.358;9.752;2023-02-01T11:27:25;100540.00;;;17.66;34.68
16613;BME280;8419;52.358;9.752;2023-02-01T11:30:16;100532.00;;;17.70;34.56
16613;BME280;8419;52.358;9.752;2023-02-01T11:33:03;100530.00;;;17.73;34.48
16613;BME280;8419;52.358;9.752;2023-02-01T11:35:50;100519.00;;;17.68;34.65
16613;BME280;8419;52.358;9.752;2023-02-01T11:38:37;100516.00;;;17.63;34.55
16613;BME280;8419;52.358;9.752;2023-02-01T11:41:25;100506.00;;;17.67;34.66
16613;BME280;8419;52.358;9.752;2023-02-01T11:44:20;100489.00;;;17.79;34.68
16613;BME280;8419;52.358;9.752;2023-02-01T11:50:30;100490.00;;;18.19;34.39
16613;BME280;8419;52.358;9.752;2023-02-01T11:53:28;100482.00;;;18.16;34.25
16613;BME280;8419;52.358;9.752;2023-02-01T11:56:25;100470.00;;;18.30;34.08
16613;BME280;8419;52.358;9.752;2023-02-01T11:59:21;100471.00;;;18.32;34.14
16613;BME280;8419;52.358;9.752;2023-02-01T12:02:33;100467.00;;;18.65;33.81
16613;BME280;8419;52.358;9.752;2023-02-01T12:05:34;100434.00;;;18.68;33.74
16613;BME280;8419;52.358;9.752;2023-02-01T12:08:35;100447.00;;;18.66;33.26
16613;BME280;8419;52.358;9.752;2023-02-01T12:11:38;100417.00;;;18.61;33.32
16613;BME280;8419;52.358;9.752;2023-02-01T12:14:40;100405.00;;;18.76;33.28
16613;BME280;8419;52.358;9.752;2023-02-01T12:17:51;100405.00;;;18.79;33.03
16613;BME280;8419;52.358;9.752;2023-02-01T12:20:59;100422.00;;;18.79;33.24
16613;BME280;8419;52.358;9.752;2023-02-01T12:24:02;100398.00;;;18.55;33.10
16613;BME280;8419;52.358;9.752;2023-02-01T12:27:02;100399.00;;;18.32;33.29
16613;BME280;8419;52.358;9.752;2023-02-01T12:29:59;100403.00;;;18.14;33.51
16613;BME280;8419;52.358;9.752;2023-02-01T12:32:57;100372.00;;;17.73;34.52
16613;BME280;8419;52.358;9.752;2023-02-01T12:35:59;100392.00;;;17.15;35.57
16613;BME280;8419;52.358;9.752;2023-02-01T12:38:56;100380.00;;;16.92;36.10
16613;BME280;8419;52.358;9.752;2023-02-01T12:42:08;100370.00;;;16.70;36.67
16613;BME280;8419;52.358;9.752;2023-02-01T12:45:01;100368.00;;;16.55;37.22
16613;BME280;8419;52.358;9.752;2023-02-01T12:47:51;100375.00;;;16.22;37.99
16613;BME280;8419;52.358;9.752;2023-02-01T12:50:45;100369.00;;;16.02;38.54
16613;BME280;8419;52.358;9.752;2023-02-01T12:53:42;100373.00;;;15.92;39.07
16613;BME280;8419;52.358;9.752;2023-02-01T12:56:32;100335.00;;;15.98;39.30
16613;BME280;8419;52.358;9.752;2023-02-01T12:59:24;100337.00;;;15.99;39.59
16613;BME280;8419;52.358;9.752;2023-02-01T13:02:19;100332.00;;;16.02;39.60
16613;BME280;8419;52.358;9.752;2023-02-01T13:05:17;100368.00;;;15.92;39.73
16613;BME280;8419;52.358;9.752;2023-02-01T13:08:06;100360.00;;;15.78;40.15
16613;BME280;8419;52.358;9.752;2023-02-01T13:10:58;100373.00;;;15.73;40.35
16613;BME280;8419;52.358;9.752;2023-02-01T13:13:52;100343.00;;;15.71;40.53
16613;BME280;8419;52.358;9.752;2023-02-01T13:16:44;100332.00;;;15.64;40.77
16613;BME280;8419;52.358;9.752;2023-02-01T13:19:39;100329.00;;;15.53;41.10
16613;BME280;8419;52.358;9.752;2023-02-01T13:22:29;100327.00;;;15.44;41.51
16613;BME280;8419;52.358;9.752;2023-02-01T13:25:24;100341.00;;;15.49;41.47
16613;BME280;8419;52.358;9.752;2023-02-01T13:28:14;100355.00;;;15.36;41.69
16613;BME280;8419;52.358;9.752;2023-02-01T13:31:17;100394.00;;;15.33;41.92
16613;BME280;8419;52.358;9.752;2023-02-01T13:34:32;100351.00;;;15.28;42.08
16613;BME280;8419;52.358;9.752;2023-02-01T13:37:37;100508.00;;;15.26;42.22
16613;BME280;8419;52.358;9.752;2023-02-01T13:40:36;100531.00;;;13.94;38.52
16613;BME280;8419;52.358;9.752;2023-02-01T13:43:28;100530.00;;;12.66;39.77
16613;BME280;8419;52.358;9.752;2023-02-01T13:46:14;100456.00;;;12.08;40.56
16613;BME280;8419;52.358;9.752;2023-02-01T13:49:02;100467.00;;;11.72;41.11
16613;BME280;8419;52.358;9.752;2023-02-01T13:51:50;100481.00;;;11.50;41.39
16613;BME280;8419;52.358;9.752;2023-02-01T13:54:38;100500.00;;;11.20;41.94
16613;BME280;8419;52.358;9.752;2023-02-01T13:57:35;100525.00;;;11.17;41.94
16613;BME280;8419;52.358;9.752;2023-02-01T14:00:27;100499.00;;;11.08;42.01
16613;BME280;8419;52.358;9.752;2023-02-01T14:03:17;100479.00;;;10.95;42.22
16613;BME280;8419;52.358;9.752;2023-02-01T14:09:35;100468.00;;;10.83;42.55
16613;BME280;8419;52.358;9.752;2023-02-01T14:12:45;100467.00;;;10.79;42.73
16613;BME280;8419;52.358;9.752;2023-02-01T14:15:33;100480.00;;;10.80;42.64
16613;BME280;8419;52.358;9.752;2023-02-01T14:18:58;100485.00;;;10.79;42.66
16613;BME280;8419;52.358;9.752;2023-02-01T14:21:53;100489.00;;;10.79;42.85
16613;BME280;8419;52.358;9.752;2023-02-01T14:24:52;100448.00;;;10.77;42.89
16613;BME280;8419;52.358;9.752;2023-02-01T14:27:40;100474.00;;;10.81;42.95
16613;BME280;8419;52.358;9.752;2023-02-01T14:30:29;100479.00;;;10.86;42.99
16613;BME280;8419;52.358;9.752;2023-02-01T14:33:24;100485.00;;;10.88;43.03
16613;BME280;8419;52.358;9.752;2023-02-01T14:36:13;100500.00;;;10.89;43.18
16613;BME280;8419;52.358;9.752;2023-02-01T14:39:03;100499.00;;;10.92;43.17
16613;BME280;8419;52.358;9.752;2023-02-01T14:41:54;100507.00;;;11.03;43.07
16613;BME280;8419;52.358;9.752;2023-02-01T14:44:41;100508.00;;;11.00;43.22
16613;BME280;8419;52.358;9.752;2023-02-01T14:47:30;100505.00;;;11.09;43.23
16613;BME280;8419;52.358;9.752;2023-02-01T14:50:31;100506.00;;;11.10;43.26
16613;BME280;8419;52.358;9.752;2023-02-01T14:53:21;100514.00;;;11.21;43.14
16613;BME280;8419;52.358;9.752;2023-02-01T14:56:13;100519.00;;;11.19;43.14
16613;BME280;8419;52.358;9.752;2023-02-01T14:59:06;100537.00;;;11.25;43.11
16613;BME280;8419;52.358;9.752;2023-02-01T15:01:57;100539.00;;;11.25;43.10
16613;BME280;8419;52.358;9.752;2023-02-01T15:04:43;100530.00;;;11.29;42.99
16613;BME280;8419;52.358;9.752;2023-02-01T15:07:30;100539.00;;;11.27;43.07
16613;BME280;8419;52.358;9.752;2023-02-01T15:10:15;100535.00;;;11.29;43.08
16613;BME280;8419;52.358;9.752;2023-02-01T15:13:01;100536.00;;;11.29;43.12
16613;BME280;8419;52.358;9.752;2023-02-01T15:16:01;100539.00;;;11.37;43.13
16613;BME280;8419;52.358;9.752;2023-02-01T15:18:47;100527.00;;;11.43;43.06
16613;BME280;8419;52.358;9.752;2023-02-01T15:21:43;100518.00;;;11.44;43.02